createdAt,value
2019-03-24T00:01:18.468Z,15.30
2019-03-24T00:04:03.332Z,15.20
2019-03-24T00:06:42.506Z,15.20
2019-03-24T00:09:27.066Z,15.50
2019-03-24T00:12:12.748Z,15.60
2019-03-24T00:14:59.137Z,15.60
2019-03-24T00:17:49.373Z,15.50
2019-03-24T00:20:31.646Z,15.60
2019-03-24T00:23:13.519Z,15.50
2019-03-24T00:29:06.361Z,15.40
2019-03-24T00:31:51.332Z,15.50
2019-03-24T00:34:31.944Z,15.50
2019-03-24T00:37:19.565Z,15.60
2019-03-24T00:40:05.064Z,15.60
2019-03-24T00:43:00.787Z,15.70
2019-03-24T00:45:42.839Z,15.60
2019-03-24T00:48:45.654Z,15.70
2019-03-24T00:51:31.188Z,15.70
2019-03-24T00:54:27.769Z,15.70
2019-03-24T00:57:17.991Z,15.80
2019-03-24T01:00:00.909Z,15.70
2019-03-24T01:02:54.723Z,15.80
2019-03-24T01:06:01.866Z,15.90
2019-03-24T01:08:54.358Z,15.90
2019-03-24T01:11:41.056Z,15.90
2019-03-24T01:14:25.571Z,15.70
2019-03-24T01:17:26.162Z,15.80
2019-03-24T01:20:09.257Z,15.90
2019-03-24T01:22:55.222Z,15.90
2019-03-24T01:25:40.737Z,15.80
2019-03-24T01:28:32.892Z,15.80
2019-03-24T01:31:24.091Z,15.90
2019-03-24T01:34:23.709Z,15.90
2019-03-24T01:37:06.779Z,16.00
2019-03-24T01:40:00.482Z,16.00
2019-03-24T01:42:53.577Z,16.10
2019-03-24T01:45:41.426Z,16.10
2019-03-24T01:48:26.057Z,16.10
2019-03-24T01:51:34.631Z,16.00
2019-03-24T01:54:19.677Z,16.20
2019-03-24T01:57:09.535Z,16.50
2019-03-24T01:59:57.162Z,16.40
2019-03-24T02:02:49.371Z,16.50
2019-03-24T02:05:40.783Z,16.50
2019-03-24T02:08:31.319Z,16.50
2019-03-24T02:11:17.635Z,16.30
2019-03-24T02:14:16.466Z,16.20
2019-03-24T02:17:05.237Z,16.30
2019-03-24T02:20:01.746Z,16.40
2019-03-24T02:23:00.759Z,16.40
2019-03-24T02:26:07.437Z,16.30
2019-03-24T02:29:13.460Z,16.40
2019-03-24T02:32:02.628Z,16.60
2019-03-24T02:34:51.770Z,16.60
2019-03-24T02:37:42.591Z,16.60
2019-03-24T02:40:49.119Z,16.80
2019-03-24T02:43:38.021Z,16.80
2019-03-24T02:46:29.438Z,16.70
2019-03-24T02:49:17.413Z,17.00
2019-03-24T02:52:05.273Z,17.00
2019-03-24T02:54:51.171Z,16.80
2019-03-24T02:58:12.108Z,16.90
2019-03-24T03:01:04.349Z,16.70
2019-03-24T03:03:50.259Z,16.70
2019-03-24T03:06:48.890Z,16.70
2019-03-24T03:09:37.521Z,16.70
2019-03-24T03:12:41.160Z,16.90
2019-03-24T03:15:55.601Z,16.80
2019-03-24T03:18:58.274Z,16.70
2019-03-24T03:21:58.748Z,16.80
2019-03-24T03:24:52.953Z,16.70
2019-03-24T03:27:41.919Z,16.70
2019-03-24T03:30:30.793Z,16.80
2019-03-24T03:33:15.768Z,17.00
2019-03-24T03:36:05.920Z,17.10
2019-03-24T03:39:12.497Z,17.20
2019-03-24T03:42:02.043Z,17.40
2019-03-24T03:44:49.995Z,17.10
2019-03-24T03:47:38.828Z,17.00
2019-03-24T03:50:23.456Z,17.00
2019-03-24T03:53:08.373Z,17.10
2019-03-24T03:55:58.197Z,17.00
2019-03-24T03:58:44.139Z,16.90
2019-03-24T04:01:42.473Z,16.80
2019-03-24T04:04:44.846Z,16.70
2019-03-24T04:07:34.091Z,16.60
2019-03-24T04:10:15.838Z,16.60
2019-03-24T04:13:14.178Z,16.60
2019-03-24T04:15:59.735Z,16.70
2019-03-24T04:18:56.085Z,16.90
2019-03-24T04:21:52.416Z,17.00
2019-03-24T04:24:57.551Z,17.30
2019-03-24T04:27:43.827Z,17.20
2019-03-24T04:30:41.825Z,17.20
2019-03-24T04:33:32.125Z,17.10
2019-03-24T04:36:52.420Z,17.10
2019-03-24T04:40:05.826Z,17.10
2019-03-24T04:42:56.374Z,17.10
2019-03-24T04:45:47.158Z,17.10
2019-03-24T04:48:49.993Z,17.00
2019-03-24T04:51:29.784Z,17.00
2019-03-24T04:54:17.993Z,17.10
2019-03-24T04:57:09.199Z,17.20
2019-03-24T05:00:17.869Z,17.30
2019-03-24T05:03:14.520Z,17.30
2019-03-24T05:06:13.448Z,17.30
2019-03-24T05:09:21.230Z,17.40
2019-03-24T05:12:23.192Z,17.40
2019-03-24T05:15:25.668Z,17.40
2019-03-24T05:18:14.054Z,17.40
2019-03-24T05:21:01.381Z,17.40
2019-03-24T05:23:54.970Z,17.50
2019-03-24T05:26:43.506Z,17.50
2019-03-24T05:29:35.987Z,17.50
2019-03-24T05:32:23.990Z,17.50
2019-03-24T05:35:15.755Z,17.60
2019-03-24T05:38:09.272Z,17.60
2019-03-24T05:41:06.702Z,17.60
2019-03-24T05:43:47.439Z,17.70
2019-03-24T05:46:52.472Z,17.80
2019-03-24T05:49:43.140Z,17.80
2019-03-24T05:52:47.549Z,17.70
2019-03-24T05:55:45.126Z,17.80
2019-03-24T05:58:34.592Z,17.90
2019-03-24T06:01:39.203Z,18.00
2019-03-24T06:04:24.580Z,18.00
2019-03-24T06:07:21.320Z,18.00
2019-03-24T06:10:13.330Z,18.10
2019-03-24T06:13:15.573Z,18.20
2019-03-24T06:16:20.882Z,18.30
2019-03-24T06:19:11.633Z,18.20
2019-03-24T06:22:07.021Z,18.20
2019-03-24T06:25:15.949Z,18.10
2019-03-24T06:28:12.831Z,18.30
2019-03-24T06:31:19.068Z,18.40
2019-03-24T06:34:16.685Z,18.60
2019-03-24T06:37:07.988Z,18.40
2019-03-24T06:40:02.915Z,18.40
2019-03-24T06:43:06.581Z,18.40
2019-03-24T06:46:14.939Z,18.60
2019-03-24T06:49:06.911Z,18.80
2019-03-24T06:52:04.031Z,18.60
2019-03-24T06:54:53.382Z,18.80
2019-03-24T06:57:50.565Z,18.90
2019-03-24T07:00:42.732Z,19.00
2019-03-24T07:03:39.486Z,18.60
2019-03-24T07:06:26.435Z,18.50
2019-03-24T07:09:29.633Z,18.40
2019-03-24T07:12:33.809Z,18.30
2019-03-24T07:15:24.631Z,18.20
2019-03-24T07:18:17.524Z,18.20
2019-03-24T07:21:23.407Z,18.10
2019-03-24T07:24:09.892Z,18.10
2019-03-24T07:27:15.062Z,18.10
2019-03-24T07:30:17.561Z,18.40
2019-03-24T07:33:10.695Z,18.20
2019-03-24T07:36:04.166Z,18.10
2019-03-24T07:39:00.636Z,18.00
2019-03-24T07:42:11.588Z,18.00
2019-03-24T07:45:21.370Z,17.90
2019-03-24T07:48:56.471Z,17.90
2019-03-24T07:51:55.266Z,17.70
2019-03-24T07:54:45.871Z,17.70
2019-03-24T07:57:46.006Z,17.80
2019-03-24T08:00:48.712Z,17.80
2019-03-24T08:03:59.057Z,17.80
2019-03-24T08:07:14.898Z,17.70
2019-03-24T08:10:23.345Z,17.70
2019-03-24T08:13:29.249Z,17.70
2019-03-24T08:16:38.614Z,17.80
2019-03-24T08:19:35.374Z,17.80
2019-03-24T08:22:36.841Z,17.80
2019-03-24T08:25:34.534Z,17.80
2019-03-24T08:28:28.983Z,18.10
2019-03-24T08:31:28.095Z,17.90
2019-03-24T08:34:24.062Z,17.90
2019-03-24T08:37:07.573Z,17.90
2019-03-24T08:39:57.695Z,17.80
2019-03-24T08:42:46.906Z,17.70
2019-03-24T08:45:57.301Z,17.70
2019-03-24T08:48:44.779Z,17.70
2019-03-24T08:51:42.410Z,17.70
2019-03-24T08:54:40.540Z,17.70
2019-03-24T08:57:32.390Z,17.80
2019-03-24T09:00:30.833Z,17.80
2019-03-24T09:03:26.313Z,17.80
2019-03-24T09:06:19.777Z,17.90
2019-03-24T09:09:10.953Z,17.90
2019-03-24T09:12:06.275Z,17.90
2019-03-24T09:14:54.877Z,17.80
2019-03-24T09:17:49.874Z,17.80
2019-03-24T09:20:43.006Z,17.80
2019-03-24T09:23:39.872Z,18.00
2019-03-24T09:26:18.903Z,17.80
2019-03-24T09:29:16.588Z,18.10
2019-03-24T09:32:14.223Z,18.10
2019-03-24T09:34:55.687Z,18.20
2019-03-24T09:37:48.751Z,18.10
2019-03-24T09:40:37.973Z,18.10
2019-03-24T09:43:17.165Z,18.10
2019-03-24T09:46:14.631Z,18.10
2019-03-24T09:49:03.112Z,18.00
2019-03-24T09:51:52.705Z,18.00
2019-03-24T09:54:42.481Z,18.10
2019-03-24T09:57:27.553Z,17.90
2019-03-24T10:00:08.380Z,18.10
2019-03-24T10:02:57.564Z,18.10
2019-03-24T10:05:43.437Z,18.10
2019-03-24T10:08:31.890Z,18.20
2019-03-24T10:11:34.230Z,18.20
2019-03-24T10:14:28.757Z,18.30
2019-03-24T10:17:26.459Z,18.30
2019-03-24T10:20:07.130Z,18.30
2019-03-24T10:22:50.302Z,18.20
2019-03-24T10:25:42.427Z,18.10
2019-03-24T10:28:24.465Z,18.10
2019-03-24T10:31:08.242Z,18.00
2019-03-24T10:34:08.592Z,18.40
2019-03-24T10:36:54.947Z,18.30
2019-03-24T10:39:56.078Z,18.20
2019-03-24T10:42:53.148Z,18.00
2019-03-24T10:45:50.410Z,18.10
2019-03-24T10:48:36.734Z,18.10
2019-03-24T10:51:25.420Z,18.10
2019-03-24T10:54:07.978Z,18.00
2019-03-24T10:56:54.609Z,18.00
2019-03-24T10:59:36.064Z,18.20
2019-03-24T11:02:26.360Z,18.10
2019-03-24T11:05:20.665Z,18.30
2019-03-24T11:08:07.851Z,18.20
2019-03-24T11:10:56.105Z,18.20
2019-03-24T11:13:47.600Z,18.20
2019-03-24T11:16:40.612Z,18.20
2019-03-24T11:19:35.761Z,18.10
2019-03-24T11:22:25.062Z,18.10
2019-03-24T11:25:16.686Z,18.00
2019-03-24T11:28:19.064Z,17.90
2019-03-24T11:31:09.218Z,17.90
2019-03-24T11:34:18.494Z,17.90
2019-03-24T11:37:08.805Z,17.90
2019-03-24T11:40:06.473Z,17.80
2019-03-24T11:42:50.974Z,17.70
2019-03-24T11:45:40.572Z,17.60
2019-03-24T11:48:27.118Z,17.60
2019-03-24T11:51:25.523Z,17.50
2019-03-24T11:54:12.246Z,17.50
2019-03-24T11:57:03.351Z,17.50
2019-03-24T12:00:10.705Z,17.50
2019-03-24T12:03:11.265Z,17.50
2019-03-24T12:06:13.630Z,17.70
2019-03-24T12:09:12.753Z,17.60
2019-03-24T12:12:11.523Z,17.90
2019-03-24T12:15:11.851Z,17.80
2019-03-24T12:17:58.401Z,17.70
2019-03-24T12:20:45.931Z,17.60
2019-03-24T12:23:48.256Z,17.60
2019-03-24T12:26:43.125Z,17.60
2019-03-24T12:29:46.341Z,17.60
2019-03-24T12:32:40.616Z,17.60
2019-03-24T12:35:37.244Z,17.60
2019-03-24T12:38:42.033Z,17.60
2019-03-24T12:41:37.491Z,17.70
2019-03-24T12:44:40.716Z,17.70
2019-03-24T12:47:40.654Z,17.90
2019-03-24T12:50:43.808Z,17.70
2019-03-24T12:54:01.015Z,17.70
2019-03-24T12:56:56.770Z,17.70
2019-03-24T13:00:01.828Z,17.50
2019-03-24T13:03:11.111Z,17.40
2019-03-24T13:06:14.280Z,17.30
2019-03-24T13:09:39.123Z,17.30
2019-03-24T13:12:36.536Z,17.20
2019-03-24T13:15:29.215Z,17.10
2019-03-24T13:18:26.189Z,17.10
2019-03-24T13:21:20.225Z,17.30
2019-03-24T13:24:06.992Z,17.20
2019-03-24T13:27:26.579Z,17.10
2019-03-24T13:30:22.500Z,17.00
2019-03-24T13:33:32.312Z,16.90
2019-03-24T13:36:40.838Z,17.00
2019-03-24T13:39:43.389Z,16.90
2019-03-24T13:43:06.880Z,16.80
2019-03-24T13:46:18.464Z,16.80
2019-03-24T13:49:20.691Z,16.80
2019-03-24T13:52:32.017Z,16.80
2019-03-24T13:55:29.055Z,16.80
2019-03-24T13:58:35.289Z,17.10
2019-03-24T14:01:40.452Z,17.00
2019-03-24T14:04:32.133Z,16.90
2019-03-24T14:07:45.517Z,16.80
2019-03-24T14:11:18.928Z,16.90
2019-03-24T14:14:27.507Z,16.80
2019-03-24T14:17:21.588Z,16.80
2019-03-24T14:20:43.285Z,16.80
2019-03-24T14:23:42.595Z,16.80
2019-03-24T14:26:49.364Z,16.80
2019-03-24T14:29:58.494Z,16.90
2019-03-24T14:33:09.715Z,16.90
2019-03-24T14:35:57.757Z,16.90
2019-03-24T14:39:16.289Z,16.80
2019-03-24T14:42:23.841Z,16.80
2019-03-24T14:45:43.974Z,16.70
2019-03-24T14:48:24.494Z,16.70
2019-03-24T14:51:23.348Z,16.70
2019-03-24T14:54:29.601Z,16.60
2019-03-24T14:57:43.876Z,16.50
2019-03-24T15:01:16.042Z,16.50
2019-03-24T15:04:18.507Z,16.50
2019-03-24T15:07:26.716Z,17.00
2019-03-24T15:10:48.256Z,16.80
2019-03-24T15:13:57.205Z,16.60
2019-03-24T15:16:45.070Z,16.50
2019-03-24T15:20:16.427Z,16.50
2019-03-24T15:23:19.353Z,16.50
2019-03-24T15:26:14.318Z,16.50
2019-03-24T15:29:09.901Z,16.50
2019-03-24T15:31:59.838Z,16.40
2019-03-24T15:35:13.199Z,16.40
2019-03-24T15:38:46.167Z,16.80
2019-03-24T15:41:57.274Z,16.60
2019-03-24T15:45:16.580Z,16.50
2019-03-24T15:48:06.506Z,16.40
2019-03-24T15:50:53.985Z,16.30
2019-03-24T15:54:01.642Z,16.30
2019-03-24T15:57:01.742Z,16.30
2019-03-24T16:00:04.502Z,16.30
2019-03-24T16:03:14.283Z,16.50
2019-03-24T16:06:20.090Z,16.50
2019-03-24T16:09:16.600Z,16.50
2019-03-24T16:12:04.599Z,16.40
2019-03-24T16:15:00.836Z,16.40
2019-03-24T16:17:52.045Z,16.30
2019-03-24T16:20:47.200Z,16.70
2019-03-24T16:23:38.692Z,16.50
2019-03-24T16:26:32.523Z,16.50
2019-03-24T16:29:36.371Z,16.40
2019-03-24T16:32:29.972Z,16.30
2019-03-24T16:35:20.702Z,16.30
2019-03-24T16:38:16.836Z,16.20
2019-03-24T16:41:09.259Z,16.20
2019-03-24T16:44:23.086Z,16.20
2019-03-24T16:47:13.298Z,16.20
2019-03-24T16:50:06.369Z,16.20
2019-03-24T16:52:50.566Z,16.20
2019-03-24T16:55:41.155Z,16.10
2019-03-24T16:58:28.980Z,16.10
2019-03-24T17:01:12.107Z,16.10
2019-03-24T17:04:01.231Z,16.00
2019-03-24T17:07:12.762Z,16.10
2019-03-24T17:09:58.361Z,16.10
2019-03-24T17:12:41.115Z,16.00
2019-03-24T17:15:35.047Z,16.00
2019-03-24T17:18:32.795Z,16.00
2019-03-24T17:21:18.488Z,16.00
2019-03-24T17:24:01.664Z,15.90
2019-03-24T17:26:47.865Z,15.90
2019-03-24T17:29:28.101Z,15.90
2019-03-24T17:32:24.255Z,15.90
2019-03-24T17:35:04.914Z,15.90
2019-03-24T17:37:52.135Z,16.30
2019-03-24T17:40:38.850Z,16.20
2019-03-24T17:43:16.934Z,16.10
2019-03-24T17:46:01.551Z,16.00
2019-03-24T17:48:48.703Z,16.00
2019-03-24T17:51:43.062Z,15.90
2019-03-24T17:54:25.839Z,15.80
2019-03-24T17:57:09.674Z,15.80
2019-03-24T17:59:53.151Z,15.80
2019-03-24T18:02:43.084Z,15.80
2019-03-24T18:05:34.383Z,15.80
2019-03-24T18:08:18.702Z,15.80
2019-03-24T18:11:04.443Z,15.90
2019-03-24T18:13:47.399Z,15.90
2019-03-24T18:16:28.014Z,16.00
2019-03-24T18:19:14.341Z,16.00
2019-03-24T18:22:00.097Z,16.00
2019-03-24T18:24:39.523Z,15.90
2019-03-24T18:27:33.181Z,15.90
2019-03-24T18:30:16.120Z,15.90
2019-03-24T18:33:03.933Z,15.90
2019-03-24T18:35:45.087Z,15.90
2019-03-24T18:38:31.651Z,15.90
2019-03-24T18:41:16.009Z,15.90
2019-03-24T18:43:58.723Z,15.80
2019-03-24T18:46:45.550Z,15.80
2019-03-24T18:49:27.052Z,15.80
2019-03-24T18:52:22.680Z,16.00
2019-03-24T18:55:15.344Z,16.00
2019-03-24T18:57:54.415Z,16.20
2019-03-24T19:00:35.972Z,16.10
2019-03-24T19:03:20.858Z,16.00
2019-03-24T19:05:59.449Z,16.00
2019-03-24T19:08:50.972Z,15.90
2019-03-24T19:11:42.134Z,15.90
2019-03-24T19:14:37.166Z,15.90
2019-03-24T19:17:24.200Z,15.80
2019-03-24T19:20:20.651Z,15.70
2019-03-24T19:23:01.423Z,15.70
2019-03-24T19:25:47.000Z,15.70
2019-03-24T19:28:29.700Z,15.70
2019-03-24T19:31:14.443Z,15.70
2019-03-24T19:33:53.458Z,15.90
2019-03-24T19:36:38.743Z,15.90
2019-03-24T19:39:21.183Z,16.10
2019-03-24T19:42:01.133Z,15.90
2019-03-24T19:44:47.244Z,15.80
2019-03-24T19:47:32.317Z,15.80
2019-03-24T19:50:16.964Z,15.80
2019-03-24T19:52:58.592Z,15.80
2019-03-24T19:55:44.513Z,15.80
2019-03-24T19:58:25.154Z,15.70
2019-03-24T20:01:07.401Z,15.70
2019-03-24T20:03:47.519Z,15.60
2019-03-24T20:06:29.601Z,15.70
2019-03-24T20:09:10.549Z,15.60
2019-03-24T20:11:51.998Z,15.70
2019-03-24T20:14:35.419Z,15.60
2019-03-24T20:17:14.560Z,15.60
2019-03-24T20:20:04.585Z,15.70
2019-03-24T20:22:55.548Z,16.10
2019-03-24T20:25:28.216Z,15.90
2019-03-24T20:28:08.685Z,15.90
2019-03-24T20:30:54.106Z,15.90
2019-03-24T20:33:43.989Z,15.90
2019-03-24T20:36:31.184Z,15.80
2019-03-24T20:39:16.319Z,15.70
2019-03-24T20:42:00.324Z,15.70
2019-03-24T20:44:44.035Z,15.70
2019-03-24T20:47:24.843Z,15.60
2019-03-24T20:50:23.641Z,15.60
2019-03-24T20:53:17.539Z,15.60
2019-03-24T20:55:52.773Z,15.60
2019-03-24T20:58:36.948Z,15.60
2019-03-24T21:01:19.210Z,15.50
2019-03-24T21:04:04.576Z,15.60
2019-03-24T21:06:49.473Z,15.50
2019-03-24T21:09:43.038Z,15.50
2019-03-24T21:12:24.869Z,15.50
2019-03-24T21:15:16.638Z,15.50
2019-03-24T21:17:56.912Z,15.60
2019-03-24T21:20:41.021Z,15.50
2019-03-24T21:23:29.424Z,15.50
2019-03-24T21:26:07.354Z,15.50
2019-03-24T21:28:55.411Z,15.50
2019-03-24T21:31:39.044Z,15.50
2019-03-24T21:34:22.007Z,15.50
2019-03-24T21:37:08.800Z,15.50
2019-03-24T21:39:57.636Z,15.50
2019-03-24T21:42:40.550Z,15.40
2019-03-24T21:45:28.479Z,15.80
2019-03-24T21:48:10.697Z,15.70
2019-03-24T21:50:56.427Z,16.00
2019-03-24T21:53:40.946Z,15.90
2019-03-24T21:56:19.517Z,15.70
2019-03-24T21:59:02.000Z,15.60
2019-03-24T22:01:44.801Z,15.50
2019-03-24T22:04:26.141Z,15.50
2019-03-24T22:07:07.737Z,15.50
2019-03-24T22:09:46.559Z,15.50
2019-03-24T22:12:26.724Z,15.50
2019-03-24T22:15:08.267Z,15.50
2019-03-24T22:17:59.225Z,15.50
2019-03-24T22:20:51.110Z,15.60
2019-03-24T22:23:33.901Z,15.50
2019-03-24T22:26:20.091Z,15.50
2019-03-24T22:29:02.261Z,15.50
2019-03-24T22:31:45.010Z,15.60
2019-03-24T22:34:27.464Z,15.60
2019-03-24T22:37:15.711Z,15.60
2019-03-24T22:39:54.050Z,15.60
2019-03-24T22:42:43.384Z,15.50
2019-03-24T22:45:25.209Z,15.50
2019-03-24T22:48:06.262Z,15.50
2019-03-24T22:50:50.462Z,15.50
2019-03-24T22:53:39.790Z,15.50
2019-03-24T22:56:30.373Z,15.50
2019-03-24T22:59:21.071Z,15.50
2019-03-24T23:02:05.569Z,15.50
2019-03-24T23:04:53.162Z,15.50
2019-03-24T23:07:35.846Z,15.50
2019-03-24T23:10:22.744Z,15.60
2019-03-24T23:13:04.269Z,15.50
2019-03-24T23:15:50.793Z,15.50
2019-03-24T23:18:36.243Z,15.50
2019-03-24T23:21:21.414Z,15.70
2019-03-24T23:24:15.347Z,15.80
2019-03-24T23:26:58.238Z,15.90
2019-03-24T23:29:50.159Z,15.80
2019-03-24T23:32:34.330Z,15.70
2019-03-24T23:35:20.657Z,15.80
2019-03-24T23:38:04.733Z,15.90
2019-03-24T23:40:52.067Z,15.90
2019-03-24T23:43:35.001Z,15.80
2019-03-24T23:46:21.320Z,15.70
2019-03-24T23:49:05.892Z,16.10
2019-03-24T23:51:44.947Z,16.20
2019-03-24T23:54:28.878Z,16.00
2019-03-24T23:57:09.516Z,16.20
